createdAt,value
2023-03-24T00:00:22.491Z,93.76
2023-03-24T00:01:22.465Z,93.86
2023-03-24T00:02:22.518Z,94.62
2023-03-24T00:03:22.522Z,94.58
2023-03-24T00:04:22.472Z,94.48
2023-03-24T00:05:22.436Z,94.89
2023-03-24T00:06:22.421Z,94.68
2023-03-24T00:07:22.407Z,94.93
2023-03-24T00:08:22.392Z,94.58
2023-03-24T00:09:22.404Z,94.58
2023-03-24T00:10:22.391Z,95.03
2023-03-24T00:11:22.364Z,94.89
2023-03-24T00:12:22.349Z,95.39
2023-03-24T00:13:22.355Z,95.50
2023-03-24T00:14:22.332Z,95.50
2023-03-24T00:15:22.345Z,95.50
2023-03-24T00:16:22.362Z,94.78
2023-03-24T00:17:22.301Z,94.89
2023-03-24T00:18:22.293Z,94.58
2023-03-24T00:19:22.278Z,94.68
2023-03-24T00:20:22.408Z,94.58
2023-03-24T00:21:22.255Z,94.78
2023-03-24T00:22:22.250Z,94.78
2023-03-24T00:23:22.244Z,95.60
2023-03-24T00:24:22.227Z,95.54
2023-03-24T00:25:22.236Z,95.39
2023-03-24T00:26:22.215Z,95.50
2023-03-24T00:27:22.202Z,95.60
2023-03-24T00:28:22.190Z,95.50
2023-03-24T00:29:22.193Z,95.39
2023-03-24T00:30:22.201Z,95.50
2023-03-24T00:31:22.228Z,95.50
2023-03-24T00:32:22.173Z,95.29
2023-03-24T00:33:22.141Z,94.89
2023-03-24T00:34:22.134Z,95.09
2023-03-24T00:35:22.129Z,95.39
2023-03-24T00:36:22.136Z,94.98
2023-03-24T00:37:22.101Z,95.09
2023-03-24T00:38:22.095Z,95.09
2023-03-24T00:39:22.089Z,94.98
2023-03-24T00:40:22.099Z,94.98
2023-03-24T00:41:22.077Z,95.19
2023-03-24T00:42:22.057Z,95.09
2023-03-24T00:43:22.045Z,94.98
2023-03-24T00:44:22.037Z,94.98
2023-03-24T00:45:22.035Z,95.29
2023-03-24T00:46:22.020Z,94.98
2023-03-24T00:47:22.001Z,95.60
2023-03-24T00:48:21.989Z,95.50
2023-03-24T00:49:21.983Z,95.50
2023-03-24T00:50:21.983Z,95.90
2023-03-24T00:51:21.958Z,95.70
2023-03-24T00:52:21.974Z,96.36
2023-03-24T00:53:21.958Z,96.21
2023-03-24T00:54:21.949Z,96.26
2023-03-24T00:55:21.930Z,96.01
2023-03-24T00:56:21.909Z,96.51
2023-03-24T00:57:21.995Z,96.26
2023-03-24T00:58:21.890Z,96.56
2023-03-24T00:59:21.876Z,96.56
2023-03-24T01:00:21.901Z,96.21
2023-03-24T01:01:21.912Z,96.46
2023-03-24T01:02:21.932Z,96.92
2023-03-24T01:03:21.836Z,96.87
2023-03-24T01:04:21.827Z,96.87
2023-03-24T01:05:21.830Z,97.17
2023-03-24T01:06:21.802Z,97.08
2023-03-24T01:07:21.814Z,97.89
2023-03-24T01:08:21.796Z,97.79
2023-03-24T01:09:21.791Z,97.99
2023-03-24T01:10:21.809Z,97.89
2023-03-24T01:11:21.752Z,97.69
2023-03-24T01:12:21.740Z,97.58
2023-03-24T01:13:21.730Z,97.89
2023-03-24T01:14:21.719Z,97.79
2023-03-24T01:15:21.715Z,97.69
2023-03-24T01:16:21.698Z,97.49
2023-03-24T01:17:21.683Z,97.58
2023-03-24T01:18:21.673Z,97.49
2023-03-24T01:19:21.654Z,98.10
2023-03-24T01:20:21.655Z,97.49
2023-03-24T01:21:22.637Z,97.38
2023-03-24T01:22:21.636Z,98.30
2023-03-24T01:23:21.615Z,97.89
2023-03-24T01:24:21.616Z,97.79
2023-03-24T01:25:21.607Z,98.20
2023-03-24T01:26:21.588Z,98.30
2023-03-24T01:27:21.579Z,98.40
2023-03-24T01:28:21.574Z,98.30
2023-03-24T01:29:21.551Z,97.89
2023-03-24T01:30:21.550Z,98.75
2023-03-24T01:31:21.545Z,97.89
2023-03-24T01:32:22.542Z,97.99
2023-03-24T01:33:22.551Z,98.61
2023-03-24T01:34:21.512Z,98.61
2023-03-24T01:35:21.508Z,98.50
2023-03-24T01:36:21.480Z,98.65
2023-03-24T01:37:21.469Z,98.65
2023-03-24T01:38:21.455Z,98.91
2023-03-24T01:39:21.451Z,98.81
2023-03-24T01:40:21.462Z,98.75
2023-03-24T01:41:21.454Z,99.11
2023-03-24T01:42:21.422Z,99.16
2023-03-24T01:43:21.416Z,99.68
2023-03-24T01:44:21.403Z,99.47
2023-03-24T01:45:21.426Z,99.47
2023-03-24T01:46:21.470Z,99.11
2023-03-24T01:47:21.374Z,99.16
2023-03-24T01:48:21.357Z,98.65
2023-03-24T01:49:21.349Z,98.96
2023-03-24T01:50:21.345Z,98.35
2023-03-24T01:51:21.350Z,99.37
2023-03-24T01:52:21.324Z,98.96
2023-03-24T01:53:21.304Z,99.37
2023-03-24T01:54:21.293Z,99.27
2023-03-24T01:55:21.287Z,98.65
2023-03-24T01:56:21.277Z,98.75
2023-03-24T01:57:21.261Z,98.86
2023-03-24T01:58:21.252Z,98.75
2023-03-24T01:59:21.242Z,99.06
2023-03-24T02:00:21.247Z,98.96
2023-03-24T02:01:21.310Z,98.55
2023-03-24T02:02:21.209Z,98.65
2023-03-24T02:03:21.200Z,98.75
2023-03-24T02:04:21.211Z,98.96
2023-03-24T02:05:21.190Z,98.96
2023-03-24T02:06:21.244Z,99.06
2023-03-24T02:07:21.168Z,99.16
2023-03-24T02:08:21.158Z,99.27
2023-03-24T02:09:21.156Z,99.37
2023-03-24T02:10:21.161Z,99.88
2023-03-24T02:11:21.124Z,99.88
2023-03-24T02:12:21.111Z,99.88
2023-03-24T02:13:21.102Z,99.16
2023-03-24T02:14:21.093Z,99.88
2023-03-24T02:15:21.113Z,98.65
2023-03-24T02:16:21.129Z,99.88
2023-03-24T02:17:21.062Z,99.06
2023-03-24T02:18:21.046Z,99.98
2023-03-24T02:19:22.471Z,99.47
2023-03-24T02:20:21.047Z,99.57
2023-03-24T02:21:21.022Z,99.57
2023-03-24T02:22:21.010Z,99.88
2023-03-24T02:23:21.007Z,99.88
2023-03-24T02:24:21.006Z,99.82
2023-03-24T02:25:20.997Z,99.68
2023-03-24T02:26:20.971Z,99.99
2023-03-24T02:27:20.958Z,99.78
2023-03-24T02:28:20.952Z,99.99
2023-03-24T02:29:20.937Z,99.99
2023-03-24T02:30:20.947Z,99.98
2023-03-24T02:31:20.976Z,99.88
2023-03-24T02:32:20.920Z,99.47
2023-03-24T02:33:20.901Z,99.88
2023-03-24T02:34:20.883Z,99.98
2023-03-24T02:35:20.877Z,99.88
2023-03-24T02:36:20.926Z,99.78
2023-03-24T02:37:20.856Z,99.98
2023-03-24T02:38:20.850Z,99.98
2023-03-24T02:39:20.837Z,99.99
2023-03-24T02:40:20.831Z,99.98
2023-03-24T02:41:20.834Z,99.98
2023-03-24T02:42:20.816Z,99.88
2023-03-24T02:43:20.795Z,99.68
2023-03-24T02:44:20.787Z,99.88
2023-03-24T02:45:20.788Z,99.99
2023-03-24T02:46:20.801Z,99.88
2023-03-24T02:47:20.796Z,99.47
2023-03-24T02:48:20.744Z,99.37
2023-03-24T02:49:20.736Z,99.78
2023-03-24T02:50:20.724Z,99.98
2023-03-24T02:51:20.725Z,99.99
2023-03-24T02:52:20.696Z,99.99
2023-03-24T02:53:20.694Z,99.57
2023-03-24T02:54:20.682Z,99.68
2023-03-24T02:55:20.678Z,99.98
2023-03-24T02:56:20.669Z,99.88
2023-03-24T02:57:20.650Z,99.78
2023-03-24T02:58:20.637Z,99.88
2023-03-24T02:59:20.628Z,99.88
2023-03-24T03:00:20.612Z,99.68
2023-03-24T03:01:20.696Z,99.98
2023-03-24T03:02:20.668Z,99.68
2023-03-24T03:03:20.589Z,99.99
2023-03-24T03:04:20.598Z,99.99
2023-03-24T03:05:20.564Z,99.99
2023-03-24T03:06:20.590Z,99.99
2023-03-24T03:07:20.542Z,99.99
2023-03-24T03:08:20.531Z,99.99
2023-03-24T03:09:20.539Z,99.99
2023-03-24T03:10:20.512Z,99.98
2023-03-24T03:11:20.525Z,99.99
2023-03-24T03:12:20.508Z,99.99
2023-03-24T03:13:20.491Z,99.99
2023-03-24T03:14:20.488Z,99.99
2023-03-24T03:15:20.463Z,99.99
2023-03-24T03:16:20.538Z,99.99
2023-03-24T03:17:20.442Z,99.99
2023-03-24T03:18:20.434Z,99.99
2023-03-24T03:19:20.451Z,99.99
2023-03-24T03:20:20.440Z,99.99
2023-03-24T03:21:20.426Z,99.99
2023-03-24T03:22:20.418Z,99.99
2023-03-24T03:23:20.380Z,99.99
2023-03-24T03:24:20.403Z,99.99
2023-03-24T03:25:21.364Z,99.99
2023-03-24T03:26:20.373Z,99.88
2023-03-24T03:27:20.351Z,99.99
2023-03-24T03:28:20.332Z,99.99
2023-03-24T03:29:20.320Z,99.99
2023-03-24T03:30:20.311Z,99.99
2023-03-24T03:31:20.334Z,99.99
2023-03-24T03:32:20.297Z,99.99
2023-03-24T03:33:20.282Z,99.99
2023-03-24T03:34:20.266Z,99.99
2023-03-24T03:35:20.258Z,99.99
2023-03-24T03:36:20.265Z,99.99
2023-03-24T03:37:20.240Z,99.99
2023-03-24T03:38:20.238Z,99.99
2023-03-24T03:39:20.221Z,99.98
2023-03-24T03:40:20.236Z,99.99
2023-03-24T03:41:20.213Z,99.99
2023-03-24T03:42:20.187Z,99.99
2023-03-24T03:43:20.181Z,99.99
2023-03-24T03:44:20.169Z,99.99
2023-03-24T03:45:20.157Z,99.99
2023-03-24T03:46:20.238Z,99.99
2023-03-24T03:47:20.140Z,99.99
2023-03-24T03:48:20.130Z,99.99
2023-03-24T03:49:20.119Z,99.99
2023-03-24T03:50:20.127Z,99.99
2023-03-24T03:51:20.115Z,99.99
2023-03-24T03:52:20.096Z,99.99
2023-03-24T03:53:20.077Z,99.99
2023-03-24T03:54:20.110Z,99.99
2023-03-24T03:55:20.061Z,99.99
2023-03-24T03:56:20.059Z,99.99
2023-03-24T03:57:20.038Z,99.99
2023-03-24T03:58:20.033Z,99.98
2023-03-24T03:59:20.016Z,99.82
2023-03-24T04:00:20.057Z,99.99
2023-03-24T04:01:21.010Z,99.99
2023-03-24T04:02:20.011Z,99.99
2023-03-24T04:03:20.030Z,99.99
2023-03-24T04:04:19.966Z,99.99
2023-03-24T04:05:19.959Z,99.99
2023-03-24T04:06:19.986Z,99.99
2023-03-24T04:07:19.936Z,99.99
2023-03-24T04:08:19.936Z,99.99
2023-03-24T04:09:19.918Z,99.99
2023-03-24T04:10:19.912Z,99.99
2023-03-24T04:11:19.909Z,99.99
2023-03-24T04:12:19.901Z,99.99
2023-03-24T04:13:19.884Z,99.99
2023-03-24T04:14:19.864Z,99.99
2023-03-24T04:15:19.853Z,99.99
2023-03-24T04:16:19.880Z,99.99
2023-03-24T04:17:19.837Z,99.99
2023-03-24T04:18:19.822Z,99.99
2023-03-24T04:19:19.818Z,99.99
2023-03-24T04:20:19.804Z,99.99
2023-03-24T04:21:19.809Z,99.99
2023-03-24T04:22:19.803Z,99.99
2023-03-24T04:23:19.866Z,99.99
2023-03-24T04:24:19.768Z,99.99
2023-03-24T04:25:19.775Z,99.99
2023-03-24T04:26:19.785Z,99.99
2023-03-24T04:27:20.733Z,99.99
2023-03-24T04:28:19.720Z,99.99
2023-03-24T04:29:19.709Z,99.99
2023-03-24T04:30:19.703Z,99.99
2023-03-24T04:31:19.731Z,99.99
2023-03-24T04:32:19.681Z,99.99
2023-03-24T04:33:19.672Z,99.99
2023-03-24T04:34:19.677Z,99.99
2023-03-24T04:35:19.653Z,99.99
2023-03-24T04:36:19.705Z,99.99
2023-03-24T04:37:19.670Z,99.99
2023-03-24T04:38:19.623Z,99.99
2023-03-24T04:39:19.609Z,99.99
2023-03-24T04:40:19.606Z,99.99
2023-03-24T04:41:19.604Z,99.99
2023-03-24T04:42:19.576Z,99.99
2023-03-24T04:43:19.567Z,99.99
2023-03-24T04:44:19.556Z,99.99
2023-03-24T04:45:19.545Z,99.99
2023-03-24T04:46:19.640Z,99.99
2023-03-24T04:47:19.527Z,99.99
2023-03-24T04:48:19.519Z,99.99
2023-03-24T04:49:19.507Z,99.99
2023-03-24T04:50:19.501Z,99.99
2023-03-24T04:51:19.502Z,99.99
2023-03-24T04:52:19.486Z,99.99
2023-03-24T04:53:19.471Z,99.99
2023-03-24T04:54:19.458Z,99.99
2023-03-24T04:55:19.452Z,99.99
2023-03-24T04:56:19.455Z,99.99
2023-03-24T04:57:19.427Z,99.99
2023-03-24T04:58:19.419Z,99.99
2023-03-24T04:59:19.406Z,99.99
2023-03-24T05:00:19.395Z,99.99
2023-03-24T05:01:19.488Z,99.99
2023-03-24T05:02:21.585Z,99.98
2023-03-24T05:03:19.363Z,99.99
2023-03-24T05:04:19.375Z,99.99
2023-03-24T05:05:19.343Z,99.98
2023-03-24T05:06:19.351Z,99.99
2023-03-24T05:07:19.327Z,99.99
2023-03-24T05:08:19.310Z,99.99
2023-03-24T05:09:19.303Z,99.99
2023-03-24T05:10:21.817Z,99.99
2023-03-24T05:11:19.381Z,99.99
2023-03-24T05:12:19.275Z,99.99
2023-03-24T05:13:19.258Z,99.99
2023-03-24T05:14:19.249Z,99.99
2023-03-24T05:15:19.235Z,99.99
2023-03-24T05:16:19.256Z,99.99
2023-03-24T05:17:19.211Z,99.99
2023-03-24T05:18:19.201Z,99.99
2023-03-24T05:19:19.194Z,99.99
2023-03-24T05:20:19.194Z,99.99
2023-03-24T05:21:19.170Z,99.99
2023-03-24T05:22:19.178Z,99.88
2023-03-24T05:23:19.159Z,99.88
2023-03-24T05:24:19.154Z,99.88
2023-03-24T05:25:19.165Z,99.78
2023-03-24T05:26:19.120Z,99.57
2023-03-24T05:27:19.113Z,99.68
2023-03-24T05:28:19.101Z,99.78
2023-03-24T05:29:19.100Z,99.78
2023-03-24T05:30:19.109Z,99.68
2023-03-24T05:31:19.092Z,99.68
2023-03-24T05:32:19.069Z,99.99
2023-03-24T05:33:19.048Z,99.68
2023-03-24T05:34:19.040Z,99.98
2023-03-24T05:35:19.029Z,99.47
2023-03-24T05:36:20.066Z,99.99
2023-03-24T05:37:19.016Z,99.98
2023-03-24T05:38:18.991Z,99.57
2023-03-24T05:39:18.986Z,99.16
2023-03-24T05:40:18.977Z,99.78
2023-03-24T05:41:18.966Z,99.68
2023-03-24T05:42:19.962Z,99.27
2023-03-24T05:43:18.943Z,99.88
2023-03-24T05:44:18.942Z,99.16
2023-03-24T05:45:18.921Z,99.16
2023-03-24T05:46:18.953Z,99.78
2023-03-24T05:47:18.911Z,98.65
2023-03-24T05:48:18.891Z,98.75
2023-03-24T05:49:18.878Z,98.71
2023-03-24T05:50:18.870Z,98.86
2023-03-24T05:51:18.862Z,99.78
2023-03-24T05:52:18.864Z,98.61
2023-03-24T05:53:18.843Z,99.11
2023-03-24T05:54:18.835Z,99.02
2023-03-24T05:55:18.821Z,98.61
2023-03-24T05:56:18.815Z,99.11
2023-03-24T05:57:18.813Z,99.11
2023-03-24T05:58:18.798Z,98.50
2023-03-24T05:59:18.805Z,98.71
2023-03-24T06:00:18.774Z,98.71
2023-03-24T06:01:18.796Z,98.40
2023-03-24T06:02:18.779Z,97.79
2023-03-24T06:03:18.831Z,97.74
2023-03-24T06:04:18.772Z,98.20
2023-03-24T06:05:18.724Z,97.79
2023-03-24T06:06:18.720Z,97.99
2023-03-24T06:07:18.712Z,98.20
2023-03-24T06:08:18.714Z,98.10
2023-03-24T06:09:18.685Z,98.30
2023-03-24T06:10:18.668Z,97.99
2023-03-24T06:11:18.671Z,97.69
2023-03-24T06:12:18.664Z,97.58
2023-03-24T06:13:18.642Z,97.58
2023-03-24T06:14:18.628Z,98.05
2023-03-24T06:15:18.658Z,97.64
2023-03-24T06:16:18.743Z,98.36
2023-03-24T06:17:18.611Z,97.74
2023-03-24T06:18:18.590Z,97.64
2023-03-24T06:19:18.578Z,98.36
2023-03-24T06:20:18.563Z,97.64
2023-03-24T06:21:18.558Z,97.74
2023-03-24T06:22:18.587Z,97.64
2023-03-24T06:23:18.535Z,97.54
2023-03-24T06:24:18.527Z,97.85
2023-03-24T06:25:18.525Z,97.54
2023-03-24T06:26:18.510Z,97.64
2023-03-24T06:27:18.512Z,97.74
2023-03-24T06:28:18.486Z,97.74
2023-03-24T06:29:18.486Z,97.95
2023-03-24T06:30:18.468Z,97.64
2023-03-24T06:31:18.594Z,97.44
2023-03-24T06:32:18.459Z,97.85
2023-03-24T06:33:18.439Z,97.95
2023-03-24T06:34:18.430Z,97.85
2023-03-24T06:35:18.421Z,97.03
2023-03-24T06:36:18.407Z,96.98
2023-03-24T06:37:18.413Z,97.19
2023-03-24T06:38:18.388Z,97.08
2023-03-24T06:39:18.378Z,96.68
2023-03-24T06:40:18.374Z,96.88
2023-03-24T06:41:18.352Z,96.78
2023-03-24T06:42:18.366Z,96.47
2023-03-24T06:43:18.340Z,96.62
2023-03-24T06:44:18.327Z,96.68
2023-03-24T06:45:18.341Z,96.27
2023-03-24T06:46:18.410Z,96.47
2023-03-24T06:47:18.310Z,96.06
2023-03-24T06:48:18.283Z,96.68
2023-03-24T06:49:18.286Z,96.27
2023-03-24T06:50:18.263Z,96.27
2023-03-24T06:51:18.252Z,96.58
2023-03-24T06:52:18.253Z,96.37
2023-03-24T06:53:18.250Z,96.27
2023-03-24T06:54:18.221Z,96.37
2023-03-24T06:55:18.209Z,96.06
2023-03-24T06:56:18.271Z,96.47
2023-03-24T06:57:18.209Z,96.37
2023-03-24T06:58:18.194Z,96.27
2023-03-24T06:59:18.174Z,96.58
2023-03-24T07:00:18.163Z,96.98
2023-03-24T07:01:18.164Z,96.98
2023-03-24T07:02:18.155Z,97.08
2023-03-24T07:03:18.270Z,97.08
2023-03-24T07:04:18.122Z,97.39
2023-03-24T07:05:18.109Z,98.00
2023-03-24T07:06:18.098Z,97.60
2023-03-24T07:07:41.422Z,97.39
2023-03-24T07:09:19.068Z,98.21
2023-03-24T07:10:18.058Z,98.00
2023-03-24T07:11:18.047Z,98.00
2023-03-24T07:12:18.058Z,98.11
2023-03-24T07:13:18.025Z,98.00
2023-03-24T07:14:18.016Z,98.52
2023-03-24T07:15:18.016Z,98.52
2023-03-24T07:16:18.031Z,98.52
2023-03-24T07:17:18.028Z,98.52
2023-03-24T07:18:18.002Z,98.72
2023-03-24T07:19:17.965Z,98.82
2023-03-24T07:20:17.974Z,98.52
2023-03-24T07:21:17.945Z,98.82
2023-03-24T07:22:17.942Z,99.02
2023-03-24T07:23:17.937Z,99.02
2023-03-24T07:24:17.919Z,98.72
2023-03-24T07:25:17.903Z,98.61
2023-03-24T07:26:17.905Z,98.52
2023-03-24T07:27:17.913Z,98.11
2023-03-24T07:28:17.880Z,97.39
2023-03-24T07:29:17.867Z,97.60
2023-03-24T07:30:20.538Z,97.29
2023-03-24T07:31:19.857Z,97.90
2023-03-24T07:32:17.855Z,96.98
2023-03-24T07:33:17.838Z,96.78
2023-03-24T07:34:17.818Z,96.11
2023-03-24T07:35:17.816Z,96.06
2023-03-24T07:36:17.842Z,95.15
2023-03-24T07:37:17.800Z,94.94
2023-03-24T07:38:17.782Z,93.88
2023-03-24T07:39:17.766Z,93.67
2023-03-24T07:40:17.765Z,93.57
2023-03-24T07:41:17.779Z,93.98
2023-03-24T07:42:17.750Z,93.57
2023-03-24T07:43:17.750Z,93.37
2023-03-24T07:44:17.720Z,93.37
2023-03-24T07:45:17.709Z,92.71
2023-03-24T07:46:17.783Z,92.20
2023-03-24T07:47:17.707Z,91.79
2023-03-24T07:48:17.677Z,91.89
2023-03-24T07:49:19.968Z,90.98
2023-03-24T07:50:18.653Z,91.69
2023-03-24T07:51:17.647Z,90.88
2023-03-24T07:52:17.664Z,90.73
2023-03-24T07:53:17.636Z,90.22
2023-03-24T07:54:17.620Z,89.40
2023-03-24T07:55:17.619Z,89.51
2023-03-24T07:56:17.596Z,90.01
2023-03-24T07:57:17.649Z,89.92
2023-03-24T07:58:17.936Z,89.61
2023-03-24T07:59:17.590Z,88.53
2023-03-24T08:00:17.557Z,88.49
2023-03-24T08:01:17.542Z,89.92
2023-03-24T08:02:17.616Z,88.43
2023-03-24T08:03:17.616Z,88.49
2023-03-24T08:04:17.620Z,88.28
2023-03-24T08:05:17.512Z,87.77
2023-03-24T08:06:17.497Z,87.98
2023-03-24T08:07:17.492Z,88.39
2023-03-24T08:08:17.533Z,88.08
2023-03-24T08:09:17.473Z,88.14
2023-03-24T08:10:17.461Z,87.73
2023-03-24T08:11:17.493Z,86.30
2023-03-24T08:12:20.308Z,86.10
2023-03-24T08:13:18.422Z,86.47
2023-03-24T08:14:17.411Z,86.06
2023-03-24T08:15:17.402Z,86.77
2023-03-24T08:16:17.477Z,85.86
2023-03-24T08:17:17.407Z,84.43
2023-03-24T08:18:17.369Z,84.53
2023-03-24T08:19:17.356Z,84.33
2023-03-24T08:20:17.351Z,84.33
2023-03-24T08:21:17.338Z,83.42
2023-03-24T08:22:17.342Z,83.42
2023-03-24T08:23:17.312Z,84.12
2023-03-24T08:24:17.582Z,84.23
2023-03-24T08:25:17.294Z,84.33
2023-03-24T08:26:17.283Z,84.12
2023-03-24T08:27:17.289Z,84.33
2023-03-24T08:28:17.260Z,85.05
2023-03-24T08:29:17.254Z,83.82
2023-03-24T08:30:17.256Z,83.45
2023-03-24T08:31:17.278Z,83.65
2023-03-24T08:32:17.230Z,83.86
2023-03-24T08:33:17.317Z,83.96
2023-03-24T08:34:17.203Z,84.27
2023-03-24T08:35:17.236Z,83.56
2023-03-24T08:36:18.112Z,83.96
2023-03-24T08:37:17.188Z,83.96
2023-03-24T08:38:18.715Z,83.96
2023-03-24T08:39:17.183Z,83.35
2023-03-24T08:40:17.140Z,83.76
2023-03-24T08:41:17.123Z,83.56
2023-03-24T08:42:17.128Z,83.90
2023-03-24T08:43:17.102Z,83.96
2023-03-24T08:44:17.101Z,83.70
2023-03-24T08:45:17.088Z,83.96
2023-03-24T08:46:17.115Z,83.65
2023-03-24T08:47:18.070Z,83.86
2023-03-24T08:48:17.051Z,83.96
2023-03-24T08:49:17.035Z,83.56
2023-03-24T08:50:17.041Z,83.15
2023-03-24T08:51:17.030Z,83.15
2023-03-24T08:52:17.019Z,83.65
2023-03-24T08:53:17.001Z,84.00
2023-03-24T08:54:16.989Z,83.76
2023-03-24T08:55:16.976Z,83.96
2023-03-24T08:56:16.970Z,83.65
2023-03-24T08:57:16.973Z,84.17
2023-03-24T08:58:16.954Z,82.98
2023-03-24T08:59:16.943Z,83.45
2023-03-24T09:00:16.967Z,83.35
2023-03-24T09:01:16.988Z,83.96
2023-03-24T09:02:16.905Z,83.76
2023-03-24T09:03:17.111Z,83.25
2023-03-24T09:04:16.904Z,82.84
2023-03-24T09:05:16.885Z,83.04
2023-03-24T09:06:16.871Z,83.15
2023-03-24T09:07:16.852Z,82.64
2023-03-24T09:08:16.872Z,82.54
2023-03-24T09:09:16.842Z,82.13
2023-03-24T09:10:16.867Z,82.40
2023-03-24T09:11:16.844Z,81.88
2023-03-24T09:12:16.801Z,82.29
2023-03-24T09:13:16.801Z,81.65
2023-03-24T09:14:16.782Z,81.54
2023-03-24T09:15:16.839Z,81.13
2023-03-24T09:16:16.787Z,80.42
2023-03-24T09:17:16.752Z,80.63
2023-03-24T09:18:16.752Z,79.98
2023-03-24T09:19:16.756Z,79.91
2023-03-24T09:20:16.720Z,80.93
2023-03-24T09:21:16.716Z,81.44
2023-03-24T09:22:16.704Z,81.30
2023-03-24T09:23:16.708Z,82.01
2023-03-24T09:24:16.681Z,80.59
2023-03-24T09:25:16.809Z,80.45
2023-03-24T09:26:16.697Z,78.21
2023-03-24T09:27:16.654Z,76.68
2023-03-24T09:28:16.668Z,75.63
2023-03-24T09:29:16.631Z,75.43
2023-03-24T09:30:16.626Z,76.65
2023-03-24T09:31:16.649Z,75.73
2023-03-24T09:32:16.610Z,74.01
2023-03-24T09:33:16.608Z,73.70
2023-03-24T09:34:16.585Z,73.70
2023-03-24T09:35:16.646Z,72.48
2023-03-24T09:36:16.624Z,72.58
2023-03-24T09:37:16.548Z,71.87
2023-03-24T09:38:16.566Z,72.28
2023-03-24T09:39:17.498Z,72.58
2023-03-24T09:40:16.523Z,71.36
2023-03-24T09:41:16.530Z,70.14
2023-03-24T09:42:16.500Z,71.36
2023-03-24T09:43:16.512Z,70.86
2023-03-24T09:44:16.495Z,70.99
2023-03-24T09:45:16.564Z,70.48
2023-03-24T09:46:16.523Z,70.79
2023-03-24T09:47:16.443Z,70.99
2023-03-24T09:48:16.465Z,71.91
2023-03-24T09:49:16.436Z,71.09
2023-03-24T09:50:16.424Z,70.18
2023-03-24T09:51:16.408Z,71.33
2023-03-24T09:52:16.441Z,71.64
2023-03-24T09:53:16.435Z,71.94
2023-03-24T09:54:16.381Z,72.38
2023-03-24T09:55:16.367Z,72.89
2023-03-24T09:56:16.367Z,73.91
2023-03-24T09:57:16.366Z,74.52
2023-03-24T09:58:16.360Z,75.54
2023-03-24T09:59:16.347Z,76.25
2023-03-24T10:00:16.333Z,75.47
2023-03-24T10:01:16.343Z,73.54
2023-03-24T10:02:16.308Z,72.08
2023-03-24T10:03:16.347Z,72.01
2023-03-24T10:04:16.387Z,71.30
2023-03-24T10:05:16.268Z,70.65
2023-03-24T10:06:16.263Z,70.38
2023-03-24T10:07:16.255Z,69.84
2023-03-24T10:08:16.248Z,67.52
2023-03-24T10:09:16.235Z,67.60
2023-03-24T10:10:16.212Z,67.52
2023-03-24T10:11:16.206Z,67.43
2023-03-24T10:12:16.196Z,67.22
2023-03-24T10:13:16.194Z,69.15
2023-03-24T10:14:16.173Z,70.14
2023-03-24T10:15:24.367Z,70.55
2023-03-24T10:16:18.197Z,72.96
2023-03-24T10:17:16.155Z,75.70
2023-03-24T10:18:16.154Z,77.98
2023-03-24T10:19:16.132Z,80.93
2023-03-24T10:20:16.147Z,82.26
2023-03-24T10:21:16.110Z,83.42
2023-03-24T10:22:16.100Z,84.64
2023-03-24T10:23:16.101Z,86.10
2023-03-24T10:24:16.080Z,85.75
2023-03-24T10:25:16.065Z,86.82
2023-03-24T10:26:16.066Z,86.51
2023-03-24T10:27:16.051Z,86.61
2023-03-24T10:28:16.050Z,85.80
2023-03-24T10:29:16.044Z,86.71
2023-03-24T10:30:16.021Z,87.73
2023-03-24T10:31:16.090Z,86.55
2023-03-24T10:32:16.019Z,88.49
2023-03-24T10:33:16.010Z,89.14
2023-03-24T10:34:15.979Z,90.26
2023-03-24T10:35:15.982Z,89.92
2023-03-24T10:36:16.013Z,90.12
2023-03-24T10:37:15.954Z,89.71
2023-03-24T10:38:15.951Z,89.40
2023-03-24T10:39:20.924Z,89.81
2023-03-24T10:40:17.931Z,88.59
2023-03-24T10:41:15.917Z,89.77
2023-03-24T10:42:15.933Z,88.24
2023-03-24T10:43:15.905Z,88.10
2023-03-24T10:44:15.888Z,87.90
2023-03-24T10:45:15.884Z,87.35
2023-03-24T10:46:15.942Z,86.39
2023-03-24T10:47:15.869Z,85.78
2023-03-24T10:48:15.860Z,85.94
2023-03-24T10:49:15.839Z,84.92
2023-03-24T10:50:15.958Z,84.52
2023-03-24T10:51:15.817Z,83.20
2023-03-24T10:52:15.817Z,83.50
2023-03-24T10:53:15.804Z,83.76
2023-03-24T10:54:15.782Z,83.15
2023-03-24T10:55:15.772Z,82.24
2023-03-24T10:56:15.762Z,82.95
2023-03-24T10:57:15.842Z,82.85
2023-03-24T10:58:15.759Z,82.28
2023-03-24T10:59:15.733Z,82.34
2023-03-24T11:00:15.731Z,82.34
2023-03-24T11:01:15.740Z,81.23
2023-03-24T11:02:15.773Z,82.04
2023-03-24T11:03:15.753Z,82.45
2023-03-24T11:04:15.687Z,82.04
2023-03-24T11:05:15.673Z,81.33
2023-03-24T11:06:15.656Z,81.93
2023-03-24T11:07:15.650Z,82.00
2023-03-24T11:08:15.653Z,81.29
2023-03-24T11:09:15.625Z,80.74
2023-03-24T11:10:15.671Z,81.05
2023-03-24T11:11:15.604Z,80.44
2023-03-24T11:12:15.664Z,80.10
2023-03-24T11:13:16.815Z,79.90
2023-03-24T11:14:15.577Z,80.10
2023-03-24T11:15:21.057Z,78.13
2023-03-24T11:16:17.628Z,78.06
2023-03-24T11:17:15.554Z,77.36
2023-03-24T11:18:15.590Z,77.80
2023-03-24T11:19:17.575Z,78.10
2023-03-24T11:20:16.523Z,78.71
2023-03-24T11:21:15.511Z,77.80
2023-03-24T11:22:15.509Z,78.64
2023-03-24T11:23:15.492Z,78.64
2023-03-24T11:24:15.475Z,78.95
2023-03-24T11:25:15.473Z,77.73
2023-03-24T11:26:15.471Z,78.04
2023-03-24T11:27:15.444Z,77.83
2023-03-24T11:28:15.444Z,76.72
2023-03-24T11:29:15.434Z,77.29
2023-03-24T11:30:15.432Z,77.94
2023-03-24T11:31:15.445Z,78.14
2023-03-24T11:32:15.430Z,77.29
2023-03-24T11:33:15.395Z,78.44
2023-03-24T11:34:15.422Z,77.43
2023-03-24T11:35:15.373Z,77.43
2023-03-24T11:36:15.389Z,77.33
2023-03-24T11:37:15.353Z,78.14
2023-03-24T11:38:15.350Z,78.28
2023-03-24T11:39:15.358Z,78.89
2023-03-24T11:40:15.326Z,79.19
2023-03-24T11:41:15.307Z,78.89
2023-03-24T11:42:15.316Z,78.92
2023-03-24T11:43:15.297Z,79.16
2023-03-24T11:44:15.279Z,79.37
2023-03-24T11:45:15.271Z,79.47
2023-03-24T11:46:15.307Z,78.72
2023-03-24T11:47:15.250Z,77.91
2023-03-24T11:48:15.252Z,78.76
2023-03-24T11:49:15.237Z,77.70
2023-03-24T11:50:15.222Z,78.11
2023-03-24T11:51:15.207Z,77.81
2023-03-24T11:52:15.198Z,77.36
2023-03-24T11:53:15.220Z,76.95
2023-03-24T11:54:15.190Z,76.25
2023-03-24T11:55:15.184Z,76.34
2023-03-24T11:56:15.165Z,75.49
2023-03-24T11:57:15.233Z,75.94
2023-03-24T11:58:15.147Z,75.40
2023-03-24T11:59:15.126Z,75.60
2023-03-24T12:00:15.143Z,74.95
2023-03-24T12:01:15.129Z,74.34
2023-03-24T12:02:15.113Z,73.74
2023-03-24T12:03:15.164Z,73.67
2023-03-24T12:04:15.097Z,74.07
2023-03-24T12:05:15.071Z,73.13
2023-03-24T12:06:15.119Z,72.58
2023-03-24T12:07:15.055Z,72.14
2023-03-24T12:08:15.049Z,70.92
2023-03-24T12:09:15.060Z,69.71
2023-03-24T12:10:15.020Z,67.27
2023-03-24T12:11:16.847Z,65.95
2023-03-24T12:12:14.997Z,65.21
2023-03-24T12:13:29.567Z,63.35
2023-03-24T12:14:16.986Z,63.23
2023-03-24T12:15:27.203Z,62.21
2023-03-24T12:16:17.006Z,61.98
2023-03-24T12:17:14.950Z,61.04
2023-03-24T12:18:14.952Z,61.47
2023-03-24T12:19:14.930Z,62.35
2023-03-24T12:20:14.920Z,60.33
2023-03-24T12:21:14.929Z,58.34
2023-03-24T12:22:14.902Z,59.34
2023-03-24T12:23:15.030Z,58.94
2023-03-24T12:24:14.877Z,58.74
2023-03-24T12:25:14.864Z,58.41
2023-03-24T12:26:14.849Z,58.44
2023-03-24T12:27:14.849Z,58.54
2023-03-24T12:28:14.841Z,58.74
2023-03-24T12:29:14.841Z,55.80
2023-03-24T12:30:14.809Z,56.95
2023-03-24T12:31:14.825Z,56.10
2023-03-24T12:32:14.793Z,56.13
2023-03-24T12:33:14.780Z,56.05
2023-03-24T12:34:14.788Z,56.67
2023-03-24T12:35:14.757Z,56.99
2023-03-24T12:36:14.810Z,57.07
2023-03-24T12:37:14.767Z,57.81
2023-03-24T12:38:14.733Z,58.52
2023-03-24T12:39:14.734Z,57.30
2023-03-24T12:40:14.771Z,58.62
2023-03-24T12:41:14.700Z,58.54
2023-03-24T12:42:14.691Z,59.53
2023-03-24T12:43:14.693Z,59.46
2023-03-24T12:44:14.692Z,56.59
2023-03-24T12:45:14.668Z,56.39
2023-03-24T12:46:14.678Z,56.59
2023-03-24T12:47:14.676Z,56.82
2023-03-24T12:48:14.632Z,56.70
2023-03-24T12:49:14.632Z,56.70
2023-03-24T12:50:14.676Z,58.22
2023-03-24T12:51:14.607Z,58.09
2023-03-24T12:52:14.603Z,57.28
2023-03-24T12:53:14.588Z,56.74